sensor_id;sensor_type;location;lat;lon;timestamp;pressure;altitude;pressure_sealevel;temperature;humidity
13033;BME280;6583;42.632;23.298;2023-06-01T00:00:50;70247.22;;;-146.40;96.69
13033;BME280;6583;42.632;23.298;2023-06-01T00:03:21;70241.13;;;-146.40;97.39
13033;BME280;6583;42.632;23.298;2023-06-01T00:05:48;70233.03;;;-146.40;97.38
13033;BME280;6583;42.632;23.298;2023-06-01T00:08:14;70226.97;;;-146.40;95.93
13033;BME280;6583;42.632;23.298;2023-06-01T00:10:41;70235.06;;;-146.40;96.06
13033;BME280;6583;42.632;23.298;2023-06-01T00:13:08;70235.06;;;-146.40;96.31
13033;BME280;6583;42.632;23.298;2023-06-01T00:15:36;70237.09;;;-146.40;96.78
13033;BME280;6583;42.632;23.298;2023-06-01T00:18:02;70235.06;;;-146.40;97.02
13033;BME280;6583;42.632;23.298;2023-06-01T00:20:31;70226.97;;;-146.40;96.52
13033;BME280;6583;42.632;23.298;2023-06-01T00:22:57;70235.06;;;-146.40;96.21
13033;BME280;6583;42.632;23.298;2023-06-01T00:25:25;70235.06;;;-146.40;96.29
13033;BME280;6583;42.632;23.298;2023-06-01T00:27:52;70226.97;;;-146.40;96.51
13033;BME280;6583;42.632;23.298;2023-06-01T00:30:18;70222.94;;;-146.40;96.23
13033;BME280;6583;42.632;23.298;2023-06-01T00:32:46;70222.94;;;-146.40;95.60
13033;BME280;6583;42.632;23.298;2023-06-01T00:35:13;70218.88;;;-146.40;95.00
13033;BME280;6583;42.632;23.298;2023-06-01T00:37:39;70226.97;;;-146.40;94.34
13033;BME280;6583;42.632;23.298;2023-06-01T00:40:07;70214.84;;;-146.40;94.75
13033;BME280;6583;42.632;23.298;2023-06-01T00:42:33;70202.69;;;-146.40;94.82
13033;BME280;6583;42.632;23.298;2023-06-01T00:45:00;70212.81;;;-146.40;93.28
13033;BME280;6583;42.632;23.298;2023-06-01T00:47:27;70208.78;;;-146.40;92.37
13033;BME280;6583;42.632;23.298;2023-06-01T00:49:55;70210.78;;;-146.40;92.90
13033;BME280;6583;42.632;23.298;2023-06-01T00:52:22;70210.78;;;-146.40;92.61
13033;BME280;6583;42.632;23.298;2023-06-01T00:54:49;70231.03;;;-146.40;91.34
13033;BME280;6583;42.632;23.298;2023-06-01T00:57:16;70239.13;;;-146.40;90.28
13033;BME280;6583;42.632;23.298;2023-06-01T00:59:46;70239.13;;;-146.40;90.89
13033;BME280;6583;42.632;23.298;2023-06-01T01:02:13;70235.06;;;-146.40;91.35
13033;BME280;6583;42.632;23.298;2023-06-01T01:04:40;70235.06;;;-146.40;91.57
13033;BME280;6583;42.632;23.298;2023-06-01T01:07:14;70222.94;;;-146.40;92.77
13033;BME280;6583;42.632;23.298;2023-06-01T01:09:49;70229.00;;;-146.40;90.75
13033;BME280;6583;42.632;23.298;2023-06-01T01:12:23;70249.22;;;-146.40;90.01
13033;BME280;6583;42.632;23.298;2023-06-01T01:14:56;70267.44;;;-146.40;89.64
13033;BME280;6583;42.632;23.298;2023-06-01T01:17:30;70275.53;;;-146.40;91.84
13033;BME280;6583;42.632;23.298;2023-06-01T01:20:03;70275.53;;;-146.40;91.62
13033;BME280;6583;42.632;23.298;2023-06-01T01:26:12;70269.47;;;-146.40;93.03
13033;BME280;6583;42.632;23.298;2023-06-01T01:28:46;70271.47;;;-146.40;91.75
13033;BME280;6583;42.632;23.298;2023-06-01T01:31:16;70279.56;;;-146.40;91.45
13033;BME280;6583;42.632;23.298;2023-06-01T01:33:45;70269.47;;;-146.40;92.98
13033;BME280;6583;42.632;23.298;2023-06-01T01:36:13;70259.34;;;-146.40;93.92
13033;BME280;6583;42.632;23.298;2023-06-01T01:38:39;70253.28;;;-146.40;93.69
13033;BME280;6583;42.632;23.298;2023-06-01T01:41:06;70243.16;;;-146.40;92.89
13033;BME280;6583;42.632;23.298;2023-06-01T01:43:33;70237.09;;;-146.40;92.57
13033;BME280;6583;42.632;23.298;2023-06-01T01:46:06;70224.94;;;-146.40;92.21
13033;BME280;6583;42.632;23.298;2023-06-01T01:48:37;70220.91;;;-146.40;91.45
13033;BME280;6583;42.632;23.298;2023-06-01T01:51:09;70216.84;;;-146.40;90.77
13033;BME280;6583;42.632;23.298;2023-06-01T01:53:37;70210.78;;;-146.40;89.78
13033;BME280;6583;42.632;23.298;2023-06-01T01:56:07;70208.78;;;-146.40;88.86
13033;BME280;6583;42.632;23.298;2023-06-01T01:58:33;70206.75;;;-146.40;87.73
13033;BME280;6583;42.632;23.298;2023-06-01T02:01:03;70218.88;;;-146.40;86.68
13033;BME280;6583;42.632;23.298;2023-06-01T02:03:30;70218.88;;;-146.40;87.58
13033;BME280;6583;42.632;23.298;2023-06-01T02:05:57;70222.94;;;-146.40;87.13
13033;BME280;6583;42.632;23.298;2023-06-01T02:08:23;70226.97;;;-146.40;87.86
13033;BME280;6583;42.632;23.298;2023-06-01T02:10:50;70226.97;;;-146.40;86.33
13033;BME280;6583;42.632;23.298;2023-06-01T02:13:17;70247.22;;;-146.40;85.94
13033;BME280;6583;42.632;23.298;2023-06-01T02:15:43;70259.34;;;-146.40;87.95
13033;BME280;6583;42.632;23.298;2023-06-01T02:18:11;70255.28;;;-146.40;88.79
13033;BME280;6583;42.632;23.298;2023-06-01T02:20:43;70253.28;;;-146.40;88.64
13033;BME280;6583;42.632;23.298;2023-06-01T02:23:10;70255.28;;;-146.40;88.89
13033;BME280;6583;42.632;23.298;2023-06-01T02:25:36;70267.44;;;-146.40;86.34
13033;BME280;6583;42.632;23.298;2023-06-01T02:28:03;70297.78;;;-146.40;87.29
13033;BME280;6583;42.632;23.298;2023-06-01T02:30:30;70297.78;;;-146.40;88.34
13033;BME280;6583;42.632;23.298;2023-06-01T02:32:57;70307.91;;;-146.40;88.70
13033;BME280;6583;42.632;23.298;2023-06-01T02:35:25;70307.91;;;-146.40;88.94
13033;BME280;6583;42.632;23.298;2023-06-01T02:37:51;70303.84;;;-146.40;90.62
13033;BME280;6583;42.632;23.298;2023-06-01T02:40:18;70305.88;;;-146.40;92.09
13033;BME280;6583;42.632;23.298;2023-06-01T02:42:45;70291.72;;;-146.40;92.50
13033;BME280;6583;42.632;23.298;2023-06-01T02:45:11;70283.63;;;-146.40;92.36
13033;BME280;6583;42.632;23.298;2023-06-01T02:47:38;70283.63;;;-146.40;90.79
13033;BME280;6583;42.632;23.298;2023-06-01T02:50:05;70297.78;;;-146.40;88.52
13033;BME280;6583;42.632;23.298;2023-06-01T02:52:33;70307.91;;;-146.40;89.26
13033;BME280;6583;42.632;23.298;2023-06-01T02:55:01;70307.91;;;-146.40;90.10
13033;BME280;6583;42.632;23.298;2023-06-01T02:57:28;70311.94;;;-146.40;90.86
13033;BME280;6583;42.632;23.298;2023-06-01T02:59:54;70299.81;;;-146.40;91.55
13033;BME280;6583;42.632;23.298;2023-06-01T03:02:21;70293.75;;;-146.40;92.29
13033;BME280;6583;42.632;23.298;2023-06-01T03:04:47;70281.59;;;-146.40;92.21
13033;BME280;6583;42.632;23.298;2023-06-01T03:07:15;70271.47;;;-146.40;91.75
13033;BME280;6583;42.632;23.298;2023-06-01T03:09:43;70273.50;;;-146.40;91.21
13033;BME280;6583;42.632;23.298;2023-06-01T03:12:10;70271.47;;;-146.40;90.75
13033;BME280;6583;42.632;23.298;2023-06-01T03:14:36;70277.56;;;-146.40;89.95
13033;BME280;6583;42.632;23.298;2023-06-01T03:17:03;70279.56;;;-146.40;89.90
13033;BME280;6583;42.632;23.298;2023-06-01T03:19:30;70279.56;;;-146.40;90.56
13033;BME280;6583;42.632;23.298;2023-06-01T03:21:56;70277.56;;;-146.40;90.88
13033;BME280;6583;42.632;23.298;2023-06-01T03:24:23;70273.50;;;-146.40;91.64
13033;BME280;6583;42.632;23.298;2023-06-01T03:26:52;70263.38;;;-146.40;91.91
13033;BME280;6583;42.632;23.298;2023-06-01T03:29:19;70253.28;;;-146.40;91.42
13033;BME280;6583;42.632;23.298;2023-06-01T03:31:46;70247.22;;;-146.40;91.05
13033;BME280;6583;42.632;23.298;2023-06-01T03:34:13;70237.09;;;-146.40;90.51
13033;BME280;6583;42.632;23.298;2023-06-01T03:36:40;70239.13;;;-146.40;89.95
13033;BME280;6583;42.632;23.298;2023-06-01T03:39:07;70247.22;;;-146.40;89.79
13033;BME280;6583;42.632;23.298;2023-06-01T03:41:34;70255.28;;;-146.40;90.82
13033;BME280;6583;42.632;23.298;2023-06-01T03:44:02;70265.41;;;-146.40;91.99
13033;BME280;6583;42.632;23.298;2023-06-01T03:46:29;70259.34;;;-146.40;93.10
13033;BME280;6583;42.632;23.298;2023-06-01T03:48:55;70247.22;;;-146.40;93.99
13033;BME280;6583;42.632;23.298;2023-06-01T03:51:22;70237.09;;;-146.40;92.37
13033;BME280;6583;42.632;23.298;2023-06-01T03:53:49;70229.00;;;-146.40;91.18
13033;BME280;6583;42.632;23.298;2023-06-01T03:56:16;70216.84;;;-146.40;92.76
13033;BME280;6583;42.632;23.298;2023-06-01T03:58:44;70222.94;;;-146.40;93.69
13033;BME280;6583;42.632;23.298;2023-06-01T04:01:12;70210.78;;;-146.40;94.29
13033;BME280;6583;42.632;23.298;2023-06-01T04:03:42;70210.78;;;-146.40;94.91
13033;BME280;6583;42.632;23.298;2023-06-01T04:06:08;70214.84;;;-146.40;95.09
13033;BME280;6583;42.632;23.298;2023-06-01T04:08:39;70212.81;;;-146.40;96.22
13033;BME280;6583;42.632;23.298;2023-06-01T04:11:13;70210.78;;;-146.40;96.46
13033;BME280;6583;42.632;23.298;2023-06-01T04:13:39;70202.69;;;-146.40;96.03
13033;BME280;6583;42.632;23.298;2023-06-01T04:16:06;70202.69;;;-146.40;95.68
13033;BME280;6583;42.632;23.298;2023-06-01T04:18:34;70202.69;;;-146.40;95.43
13033;BME280;6583;42.632;23.298;2023-06-01T04:21:01;70202.69;;;-146.40;95.75
13033;BME280;6583;42.632;23.298;2023-06-01T04:23:28;70204.72;;;-146.40;96.30
13033;BME280;6583;42.632;23.298;2023-06-01T04:25:55;70214.84;;;-146.40;97.02
13033;BME280;6583;42.632;23.298;2023-06-01T04:28:25;70202.69;;;-146.40;97.19
13033;BME280;6583;42.632;23.298;2023-06-01T04:30:53;70190.56;;;-146.40;98.23
13033;BME280;6583;42.632;23.298;2023-06-01T04:33:20;70186.50;;;-146.40;98.77
13033;BME280;6583;42.632;23.298;2023-06-01T04:35:49;70180.44;;;-146.40;97.92
13033;BME280;6583;42.632;23.298;2023-06-01T04:38:18;70174.38;;;-146.40;98.85
13033;BME280;6583;42.632;23.298;2023-06-01T04:40:45;70164.25;;;-146.40;97.66
13033;BME280;6583;42.632;23.298;2023-06-01T04:43:11;70172.34;;;-146.40;97.75
13033;BME280;6583;42.632;23.298;2023-06-01T04:45:39;70186.50;;;-146.40;96.38
13033;BME280;6583;42.632;23.298;2023-06-01T04:48:06;70164.25;;;-146.40;95.27
13033;BME280;6583;42.632;23.298;2023-06-01T04:50:33;70162.25;;;-146.40;94.91
13033;BME280;6583;42.632;23.298;2023-06-01T04:53:05;70144.03;;;-146.40;94.72
13033;BME280;6583;42.632;23.298;2023-06-01T04:55:31;70135.94;;;-146.40;95.02
13033;BME280;6583;42.632;23.298;2023-06-01T04:57:58;70133.91;;;-146.40;94.65
13033;BME280;6583;42.632;23.298;2023-06-01T05:00:25;70127.84;;;-146.40;95.49
13033;BME280;6583;42.632;23.298;2023-06-01T05:02:51;70109.63;;;-146.40;94.97
13033;BME280;6583;42.632;23.298;2023-06-01T05:05:18;70097.50;;;-146.40;93.16
13033;BME280;6583;42.632;23.298;2023-06-01T05:07:45;70089.41;;;-146.40;93.39
13033;BME280;6583;42.632;23.298;2023-06-01T05:10:13;70091.44;;;-146.40;92.83
13033;BME280;6583;42.632;23.298;2023-06-01T05:12:40;70069.19;;;-146.40;92.49
13033;BME280;6583;42.632;23.298;2023-06-01T05:15:08;70050.97;;;-146.40;92.11
13033;BME280;6583;42.632;23.298;2023-06-01T05:17:36;70034.78;;;-146.40;91.97
13033;BME280;6583;42.632;23.298;2023-06-01T05:20:04;70020.63;;;-146.40;89.86
13033;BME280;6583;42.632;23.298;2023-06-01T05:22:34;70020.63;;;-146.40;88.58
13033;BME280;6583;42.632;23.298;2023-06-01T05:25:00;70016.59;;;-146.40;87.47
13033;BME280;6583;42.632;23.298;2023-06-01T05:27:29;70014.56;;;-146.40;87.86
13033;BME280;6583;42.632;23.298;2023-06-01T05:29:55;69996.34;;;-146.40;87.44
13033;BME280;6583;42.632;23.298;2023-06-01T05:32:22;69988.25;;;-146.40;86.66
13033;BME280;6583;42.632;23.298;2023-06-01T05:34:49;69984.22;;;-146.40;87.33
13033;BME280;6583;42.632;23.298;2023-06-01T05:37:15;69986.25;;;-146.40;85.48
13033;BME280;6583;42.632;23.298;2023-06-01T05:39:42;69980.19;;;-146.40;85.94
13033;BME280;6583;42.632;23.298;2023-06-01T05:42:09;70010.53;;;-146.40;86.17
13033;BME280;6583;42.632;23.298;2023-06-01T05:44:37;70004.44;;;-146.40;85.78
13033;BME280;6583;42.632;23.298;2023-06-01T05:47:04;70012.53;;;-146.40;86.80
13033;BME280;6583;42.632;23.298;2023-06-01T05:49:31;70020.63;;;-146.40;88.66
13033;BME280;6583;42.632;23.298;2023-06-01T05:51:57;70012.53;;;-146.40;90.07
13033;BME280;6583;42.632;23.298;2023-06-01T05:54:24;69998.38;;;-146.40;88.90
13033;BME280;6583;42.632;23.298;2023-06-01T05:56:51;70002.44;;;-146.40;87.57
13033;BME280;6583;42.632;23.298;2023-06-01T05:59:18;69994.34;;;-146.40;86.47
13033;BME280;6583;42.632;23.298;2023-06-01T06:01:46;70000.41;;;-146.40;87.23
13033;BME280;6583;42.632;23.298;2023-06-01T06:04:13;69992.31;;;-146.40;86.87
13033;BME280;6583;42.632;23.298;2023-06-01T06:06:40;69988.25;;;-146.40;85.59
13033;BME280;6583;42.632;23.298;2023-06-01T06:09:07;69976.13;;;-146.40;85.35
13033;BME280;6583;42.632;23.298;2023-06-01T06:11:35;69968.03;;;-146.40;87.06
13033;BME280;6583;42.632;23.298;2023-06-01T06:14:03;69943.75;;;-146.40;85.11
13033;BME280;6583;42.632;23.298;2023-06-01T06:16:30;69933.66;;;-146.40;87.02
13033;BME280;6583;42.632;23.298;2023-06-01T06:18:58;69925.56;;;-146.40;85.53
13033;BME280;6583;42.632;23.298;2023-06-01T06:21:25;69909.38;;;-146.40;83.98
13033;BME280;6583;42.632;23.298;2023-06-01T06:23:51;69887.13;;;-146.40;84.06
13033;BME280;6583;42.632;23.298;2023-06-01T06:26:18;69905.31;;;-146.40;82.34
13033;BME280;6583;42.632;23.298;2023-06-01T06:28:45;69874.97;;;-146.40;84.16
13033;BME280;6583;42.632;23.298;2023-06-01T06:31:11;69866.91;;;-146.40;82.52
13033;BME280;6583;42.632;23.298;2023-06-01T06:33:38;69850.72;;;-146.40;83.25
13033;BME280;6583;42.632;23.298;2023-06-01T06:36:06;69830.47;;;-146.40;81.84
13033;BME280;6583;42.632;23.298;2023-06-01T06:38:33;69822.41;;;-146.40;81.06
13033;BME280;6583;42.632;23.298;2023-06-01T06:40:59;69806.22;;;-146.40;79.06
13033;BME280;6583;42.632;23.298;2023-06-01T06:43:26;69794.06;;;-146.40;80.14
13033;BME280;6583;42.632;23.298;2023-06-01T06:45:53;69771.81;;;-146.40;80.38
13033;BME280;6583;42.632;23.298;2023-06-01T08:32:43;69624.16;;;-146.40;75.38
13033;BME280;6583;42.632;23.298;2023-06-01T08:35:10;69605.97;;;-146.40;74.21
13033;BME280;6583;42.632;23.298;2023-06-01T08:37:36;69583.72;;;-146.40;74.63
13033;BME280;6583;42.632;23.298;2023-06-01T08:40:04;69573.59;;;-146.40;71.62
13033;BME280;6583;42.632;23.298;2023-06-01T08:42:37;69565.50;;;-146.40;70.54
13033;BME280;6583;42.632;23.298;2023-06-01T08:45:06;69571.56;;;-146.40;70.19
13033;BME280;6583;42.632;23.298;2023-06-01T08:47:35;69559.44;;;-146.40;70.26
13033;BME280;6583;42.632;23.298;2023-06-01T08:50:05;69555.41;;;-146.40;70.09
13033;BME280;6583;42.632;23.298;2023-06-01T08:52:34;69535.16;;;-146.40;72.94
13033;BME280;6583;42.632;23.298;2023-06-01T08:55:02;69537.19;;;-146.40;67.28
13033;BME280;6583;42.632;23.298;2023-06-01T08:57:29;69527.06;;;-146.40;69.15
13033;BME280;6583;42.632;23.298;2023-06-01T08:59:56;69519.00;;;-146.40;68.68
13033;BME280;6583;42.632;23.298;2023-06-01T09:02:23;69494.72;;;-146.40;69.55
13033;BME280;6583;42.632;23.298;2023-06-01T09:04:50;69496.75;;;-146.40;69.04
13033;BME280;6583;42.632;23.298;2023-06-01T09:07:19;69494.72;;;-146.40;69.01
13033;BME280;6583;42.632;23.298;2023-06-01T09:09:47;69486.63;;;-146.40;68.74
13033;BME280;6583;42.632;23.298;2023-06-01T09:12:19;69478.53;;;-146.40;68.16
13033;BME280;6583;42.632;23.298;2023-06-01T09:14:46;69462.34;;;-146.40;65.58
13033;BME280;6583;42.632;23.298;2023-06-01T09:17:13;69458.31;;;-146.40;64.23
13033;BME280;6583;42.632;23.298;2023-06-01T09:19:41;69448.19;;;-146.40;62.85
13033;BME280;6583;42.632;23.298;2023-06-01T09:22:10;69434.03;;;-146.40;62.12
13033;BME280;6583;42.632;23.298;2023-06-01T09:24:39;69444.16;;;-146.40;59.65
13033;BME280;6583;42.632;23.298;2023-06-01T09:27:06;69462.34;;;-146.40;60.46
13033;BME280;6583;42.632;23.298;2023-06-01T09:29:33;69470.44;;;-146.40;60.95
13033;BME280;6583;42.632;23.298;2023-06-01T09:32:00;69486.63;;;-146.40;63.17
13033;BME280;6583;42.632;23.298;2023-06-01T09:34:27;69490.66;;;-146.40;62.05
13033;BME280;6583;42.632;23.298;2023-06-01T09:36:55;69500.78;;;-146.40;62.18
13033;BME280;6583;42.632;23.298;2023-06-01T09:39:23;69506.84;;;-146.40;64.10
13033;BME280;6583;42.632;23.298;2023-06-01T09:41:53;69510.91;;;-146.40;65.04
13033;BME280;6583;42.632;23.298;2023-06-01T09:44:26;69529.09;;;-146.40;60.29
13033;BME280;6583;42.632;23.298;2023-06-01T09:46:55;69545.28;;;-146.40;58.25
13033;BME280;6583;42.632;23.298;2023-06-01T09:49:24;69559.44;;;-146.40;56.01
13033;BME280;6583;42.632;23.298;2023-06-01T09:51:52;69575.63;;;-146.40;55.00
13033;BME280;6583;42.632;23.298;2023-06-01T09:54:24;69583.72;;;-146.40;55.67
13033;BME280;6583;42.632;23.298;2023-06-01T09:56:53;69593.81;;;-146.40;56.64
13033;BME280;6583;42.632;23.298;2023-06-01T09:59:21;69599.91;;;-146.40;56.03
13033;BME280;6583;42.632;23.298;2023-06-01T10:01:50;69607.97;;;-146.40;55.63
13033;BME280;6583;42.632;23.298;2023-06-01T10:04:20;69612.03;;;-146.40;61.98
13033;BME280;6583;42.632;23.298;2023-06-01T10:06:49;69620.13;;;-146.40;56.71
13033;BME280;6583;42.632;23.298;2023-06-01T10:09:18;69622.16;;;-146.40;55.79
13033;BME280;6583;42.632;23.298;2023-06-01T10:11:45;69634.28;;;-146.40;55.23
13033;BME280;6583;42.632;23.298;2023-06-01T10:14:14;69652.47;;;-146.40;56.55
13033;BME280;6583;42.632;23.298;2023-06-01T10:16:41;69676.75;;;-146.40;56.46
13033;BME280;6583;42.632;23.298;2023-06-01T10:19:08;69682.81;;;-146.40;57.73
13033;BME280;6583;42.632;23.298;2023-06-01T10:21:35;69686.88;;;-146.40;58.29
13033;BME280;6583;42.632;23.298;2023-06-01T10:24:03;69709.13;;;-146.40;59.95
13033;BME280;6583;42.632;23.298;2023-06-01T10:26:33;69707.09;;;-146.40;61.04
13033;BME280;6583;42.632;23.298;2023-06-01T10:29:03;69723.28;;;-146.40;61.87
13033;BME280;6583;42.632;23.298;2023-06-01T10:31:36;69751.59;;;-146.40;64.06
13033;BME280;6583;42.632;23.298;2023-06-01T10:34:04;69761.72;;;-146.40;66.42
13033;BME280;6583;42.632;23.298;2023-06-01T10:39:35;69783.97;;;-146.40;69.87
13033;BME280;6583;42.632;23.298;2023-06-01T10:42:35;69781.94;;;-146.40;71.90
13033;BME280;6583;42.632;23.298;2023-06-01T10:45:04;69773.84;;;-146.40;71.16
13033;BME280;6583;42.632;23.298;2023-06-01T10:47:46;69773.84;;;-146.40;71.48
13033;BME280;6583;42.632;23.298;2023-06-01T10:50:15;69761.72;;;-146.40;72.04
13033;BME280;6583;42.632;23.298;2023-06-01T10:52:42;69761.72;;;-146.40;72.30
13033;BME280;6583;42.632;23.298;2023-06-01T10:55:23;69763.72;;;-146.40;70.10
13033;BME280;6583;42.632;23.298;2023-06-01T10:57:50;69755.63;;;-146.40;70.30
13033;BME280;6583;42.632;23.298;2023-06-01T11:00:18;69741.47;;;-146.40;70.96
13033;BME280;6583;42.632;23.298;2023-06-01T11:02:55;69735.41;;;-146.40;70.98
13033;BME280;6583;42.632;23.298;2023-06-01T11:05:49;69721.25;;;-146.40;73.81
13033;BME280;6583;42.632;23.298;2023-06-01T11:08:50;69717.22;;;-146.40;76.00
13033;BME280;6583;42.632;23.298;2023-06-01T11:11:18;69707.09;;;-146.40;73.84
13033;BME280;6583;42.632;23.298;2023-06-01T11:14:05;69725.31;;;-146.40;69.43
13033;BME280;6583;42.632;23.298;2023-06-01T11:16:32;69729.34;;;-146.40;68.00
13033;BME280;6583;42.632;23.298;2023-06-01T11:19:01;69725.31;;;-146.40;71.57
13033;BME280;6583;42.632;23.298;2023-06-01T11:21:30;69715.19;;;-146.40;71.71
13033;BME280;6583;42.632;23.298;2023-06-01T11:23:59;69715.19;;;-146.40;70.51
13033;BME280;6583;42.632;23.298;2023-06-01T11:26:29;69721.25;;;-146.40;68.47
13033;BME280;6583;42.632;23.298;2023-06-01T11:29:12;69729.34;;;-146.40;66.90
13033;BME280;6583;42.632;23.298;2023-06-01T11:31:41;69735.41;;;-146.40;69.49
13033;BME280;6583;42.632;23.298;2023-06-01T11:34:11;69723.28;;;-146.40;70.26
13033;BME280;6583;42.632;23.298;2023-06-01T11:36:44;69741.47;;;-146.40;68.99
13033;BME280;6583;42.632;23.298;2023-06-01T11:39:17;69761.72;;;-146.40;68.05
13033;BME280;6583;42.632;23.298;2023-06-01T11:41:46;69781.94;;;-146.40;70.44
13033;BME280;6583;42.632;23.298;2023-06-01T11:44:14;69785.97;;;-146.40;73.18
13033;BME280;6583;42.632;23.298;2023-06-01T11:46:50;69808.22;;;-146.40;72.62
13033;BME280;6583;42.632;23.298;2023-06-01T11:49:19;69812.28;;;-146.40;74.86
13033;BME280;6583;42.632;23.298;2023-06-01T11:51:46;69826.44;;;-146.40;74.51
13033;BME280;6583;42.632;23.298;2023-06-01T11:54:12;69836.56;;;-146.40;75.61
13033;BME280;6583;42.632;23.298;2023-06-01T11:56:39;69854.75;;;-146.40;75.82
13033;BME280;6583;42.632;23.298;2023-06-01T11:59:07;69856.78;;;-146.40;75.75
13033;BME280;6583;42.632;23.298;2023-06-01T12:01:35;69858.81;;;-146.40;77.17
13033;BME280;6583;42.632;23.298;2023-06-01T12:04:04;69862.84;;;-146.40;79.15
13033;BME280;6583;42.632;23.298;2023-06-01T12:06:34;69866.91;;;-146.40;80.17
13033;BME280;6583;42.632;23.298;2023-06-01T12:09:01;69868.91;;;-146.40;82.00
13033;BME280;6583;42.632;23.298;2023-06-01T12:11:29;69877.00;;;-146.40;83.56
13033;BME280;6583;42.632;23.298;2023-06-01T12:13:57;69881.06;;;-146.40;84.09
13033;BME280;6583;42.632;23.298;2023-06-01T12:16:25;69881.06;;;-146.40;84.99
13033;BME280;6583;42.632;23.298;2023-06-01T12:19:13;69874.97;;;-146.40;85.90
13033;BME280;6583;42.632;23.298;2023-06-01T12:21:48;69856.78;;;-146.40;85.15
13033;BME280;6583;42.632;23.298;2023-06-01T12:24:16;69856.78;;;-146.40;85.09
13033;BME280;6583;42.632;23.298;2023-06-01T12:26:43;69844.66;;;-146.40;86.73
13033;BME280;6583;42.632;23.298;2023-06-01T12:29:10;69830.47;;;-146.40;87.20
13033;BME280;6583;42.632;23.298;2023-06-01T12:31:37;69824.41;;;-146.40;87.74
13033;BME280;6583;42.632;23.298;2023-06-01T12:34:15;69814.31;;;-146.40;88.19
13033;BME280;6583;42.632;23.298;2023-06-01T12:36:41;69814.31;;;-146.40;88.57
13033;BME280;6583;42.632;23.298;2023-06-01T12:39:09;69814.31;;;-146.40;89.30
13033;BME280;6583;42.632;23.298;2023-06-01T12:41:47;69818.34;;;-146.40;89.42
13033;BME280;6583;42.632;23.298;2023-06-01T12:44:18;69816.31;;;-146.40;89.63
13033;BME280;6583;42.632;23.298;2023-06-01T12:46:45;69816.31;;;-146.40;89.98
13033;BME280;6583;42.632;23.298;2023-06-01T12:49:13;69814.31;;;-146.40;90.52
13033;BME280;6583;42.632;23.298;2023-06-01T12:51:40;69804.19;;;-146.40;90.75
13033;BME280;6583;42.632;23.298;2023-06-01T12:54:06;69808.22;;;-146.40;90.22
13033;BME280;6583;42.632;23.298;2023-06-01T12:56:35;69798.13;;;-146.40;90.93
13033;BME280;6583;42.632;23.298;2023-06-01T12:59:02;69794.06;;;-146.40;91.16
13033;BME280;6583;42.632;23.298;2023-06-01T13:01:29;69783.97;;;-146.40;91.54
13033;BME280;6583;42.632;23.298;2023-06-01T13:03:56;69785.97;;;-146.40;91.62
13033;BME280;6583;42.632;23.298;2023-06-01T13:06:23;69783.97;;;-146.40;91.26
13033;BME280;6583;42.632;23.298;2023-06-01T13:08:49;69785.97;;;-146.40;91.67
13033;BME280;6583;42.632;23.298;2023-06-01T13:11:17;69796.09;;;-146.40;87.76
13033;BME280;6583;42.632;23.298;2023-06-01T13:13:45;69798.13;;;-146.40;85.89
13033;BME280;6583;42.632;23.298;2023-06-01T13:16:13;69802.16;;;-146.40;85.85
13033;BME280;6583;42.632;23.298;2023-06-01T13:18:40;69802.16;;;-146.40;88.13
13033;BME280;6583;42.632;23.298;2023-06-01T13:21:06;69810.25;;;-146.40;87.21
13033;BME280;6583;42.632;23.298;2023-06-01T13:23:33;69796.09;;;-146.40;89.82
13033;BME280;6583;42.632;23.298;2023-06-01T13:26:00;69788.00;;;-146.40;90.77
13033;BME280;6583;42.632;23.298;2023-06-01T13:28:26;69775.88;;;-146.40;90.30
13033;BME280;6583;42.632;23.298;2023-06-01T13:30:54;69769.81;;;-146.40;91.13
13033;BME280;6583;42.632;23.298;2023-06-01T13:33:21;69771.81;;;-146.40;89.47
13033;BME280;6583;42.632;23.298;2023-06-01T13:35:48;69777.91;;;-146.40;86.01
13033;BME280;6583;42.632;23.298;2023-06-01T13:38:15;69773.84;;;-146.40;89.21
13033;BME280;6583;42.632;23.298;2023-06-01T13:40:42;69775.88;;;-146.40;88.56
13033;BME280;6583;42.632;23.298;2023-06-01T13:43:09;69777.91;;;-146.40;88.83
13033;BME280;6583;42.632;23.298;2023-06-01T13:45:35;69775.88;;;-146.40;89.78
13033;BME280;6583;42.632;23.298;2023-06-01T13:48:04;69771.81;;;-146.40;87.91
13033;BME280;6583;42.632;23.298;2023-06-01T13:50:30;69767.78;;;-146.40;89.44
13033;BME280;6583;42.632;23.298;2023-06-01T13:52:57;69757.66;;;-146.40;89.80
13033;BME280;6583;42.632;23.298;2023-06-01T13:55:24;69755.63;;;-146.40;90.59
13033;BME280;6583;42.632;23.298;2023-06-01T13:57:53;69747.56;;;-146.40;91.00
13033;BME280;6583;42.632;23.298;2023-06-01T14:00:20;69745.53;;;-146.40;91.22
13033;BME280;6583;42.632;23.298;2023-06-01T14:02:46;69745.53;;;-146.40;89.96
13033;BME280;6583;42.632;23.298;2023-06-01T14:05:14;69753.63;;;-146.40;86.03
13033;BME280;6583;42.632;23.298;2023-06-01T14:07:41;69743.50;;;-146.40;85.53
13033;BME280;6583;42.632;23.298;2023-06-01T14:10:08;69749.56;;;-146.40;84.13
13033;BME280;6583;42.632;23.298;2023-06-01T14:12:36;69747.56;;;-146.40;78.66
13033;BME280;6583;42.632;23.298;2023-06-01T14:15:03;69735.41;;;-146.40;81.82
13033;BME280;6583;42.632;23.298;2023-06-01T14:17:30;69741.47;;;-146.40;80.86
13033;BME280;6583;42.632;23.298;2023-06-01T14:19:57;69741.47;;;-146.40;79.16
13033;BME280;6583;42.632;23.298;2023-06-01T14:22:24;69743.50;;;-146.40;78.02
13033;BME280;6583;42.632;23.298;2023-06-01T14:24:51;69739.47;;;-146.40;79.60
13033;BME280;6583;42.632;23.298;2023-06-01T14:27:18;69735.41;;;-146.40;77.87
13033;BME280;6583;42.632;23.298;2023-06-01T14:29:45;69731.38;;;-146.40;77.12
13033;BME280;6583;42.632;23.298;2023-06-01T14:32:12;69725.31;;;-146.40;79.18
13033;BME280;6583;42.632;23.298;2023-06-01T14:34:38;69729.34;;;-146.40;78.51
13033;BME280;6583;42.632;23.298;2023-06-01T14:37:06;69733.38;;;-146.40;76.95